Terminal Aerodrome Forecast
Issued by NWS

Current Version | Previous Version | Graphics & Text | Print | Product List | Glossary On
Versions: 1 2 3 4 5 6 7 8 9 10 11 12 13 14 15 16 17 18 19
561
FTUS41 KPBZ 010533 AAD
TAFMGW
TAF AMD
KMGW 010533Z 0106/0206 26009KT P6SM BKN025
     FM010800 25009KT P6SM BKN040
     FM011400 24011G21KT P6SM BKN025
     FM020000 25009KT P6SM OVC040=

USA.gov is the U.S. government's official web portal to all federal, state and local government web resources and services.